Aérodrome :
LOGIN :

S'inscrire | Disclaimer

   EN    FR    IT 

 










Légende :    VFR   VFR Marginal   IFR   IFR Intensif   IFR Très Intensif
Visi : 
Plafond : 
>= 8 km
>= 3000ft
5 à 8 km
1000 à 3000 ft
1500m à 5 km
500 à 1000 ft
800 à 1500m
200 à 500 ft
< 800m
< 200 ft
Symboles :   Orages  Brouillard  Fortes neiges  Fortes précipitations  Vent > 20 kt
SIGMETs :   Divers  Orages  Givrage  Turbulence  Onde Orograph.  Cendres Volcan.







- Altitude de l'aérodrome : 614 ft
- Code IATA : CRL


EBCI - Charleroi

DERNIER METAR :
  • 232150Z 21013KT 5000 -DZRA BR BKN006 BKN009 10/09 Q1020 TEMPO 2000 RADZ BR BKN004

METARs EXPIRÉS :
  • 232120Z 20015KT 2500 DZRA BR BKN004 BKN006 09/09 Q1020 TEMPO 2000 RADZ BR BKN004
  • 232050Z 20014KT 2500 DZRA BR BKN004 BKN006 09/08 Q1020 TEMPO 2000 RADZ BR BKN004
  • 232020Z 20015KT 4000 -DZRA BR BKN005 BKN007 09/08 Q1020 TEMPO 3000 RADZ BR BKN004
  • 231950Z 20016KT 3000 -DZRA BR BKN004 BKN007 09/08 Q1020 TEMPO 3000 RADZ BR BKN004
  • 231920Z 20014KT 3000 -DZRA BR BKN004 BKN007 08/08 Q1020 TEMPO 3000 RADZ BR BKN004
  • 231850Z 20015KT 5000 -DZRA BR SCT006 BKN009 08/08 Q1020 TEMPO 3000 RADZ BR BKN004

TAF TAF EBCI
Valide du 23 à 18h jusqu'au 25 à 00h UTC


231703Z 2318/2424 22012KT 9999 SCT005 BKN010
TEMPO 2318/2412 3000 -RADZ BR SCT003 BKN006
PROB30
TEMPO 2318/2412 1500 -DZ BKN003
TEMPO 2410/2422 22017G35KT
BECMG 2412/2414 SCT015 SCT030
TEMPO 2421/2424 4000 RA SHRA SCT010 BKN014
Pas de NOTAMs connus pour ce terrain.



MET'MAP, la Météo Aéronautique d'un coup d'oeil ! - Copyright ORBIFLY Décembre 2007 - Disclaimer

ORBIFLY MET'MAP TEAM :

Programmation & Développement : Alexandra Zaïnal
Conception & Développement : Baudouin d'Aumeries
Co-Programmation & Développement : Marc-Olivier Méhu
Soutien technique & logistique : Manuel Goepfert

Contact : metmap@orbifly.com




SOURCES & CREDITS :

   NOAA